sensor_id;sensor_type;location;lat;lon;timestamp;P1;durP1;ratioP1;P2;durP2;ratioP2
51122;SDS011;37162;41.724;13.346;2022-08-03T00:01:26;1.23;;;1.00;;
51122;SDS011;37162;41.724;13.346;2022-08-03T00:03:52;1.63;;;1.10;;
51122;SDS011;37162;41.724;13.346;2022-08-03T00:06:17;2.00;;;1.33;;
51122;SDS011;37162;41.724;13.346;2022-08-03T00:08:43;2.13;;;1.27;;
51122;SDS011;37162;41.724;13.346;2022-08-03T00:11:08;1.67;;;1.20;;
51122;SDS011;37162;41.724;13.346;2022-08-03T00:13:34;1.25;;;1.00;;
51122;SDS011;37162;41.724;13.346;2022-08-03T00:15:59;1.27;;;1.08;;
51122;SDS011;37162;41.724;13.346;2022-08-03T00:18:25;2.97;;;1.10;;
51122;SDS011;37162;41.724;13.346;2022-08-03T00:20:50;1.45;;;1.05;;
51122;SDS011;37162;41.724;13.346;2022-08-03T00:23:16;2.03;;;1.30;;
51122;SDS011;37162;41.724;13.346;2022-08-03T00:25:41;1.58;;;1.10;;
51122;SDS011;37162;41.724;13.346;2022-08-03T00:28:07;0.93;;;0.93;;
51122;SDS011;37162;41.724;13.346;2022-08-03T00:30:33;2.25;;;1.00;;
51122;SDS011;37162;41.724;13.346;2022-08-03T00:32:58;1.70;;;1.10;;
51122;SDS011;37162;41.724;13.346;2022-08-03T00:35:24;1.20;;;1.10;;
51122;SDS011;37162;41.724;13.346;2022-08-03T00:37:50;1.02;;;1.00;;
51122;SDS011;37162;41.724;13.346;2022-08-03T00:40:16;3.63;;;1.27;;
51122;SDS011;37162;41.724;13.346;2022-08-03T00:42:49;1.30;;;1.20;;
51122;SDS011;37162;41.724;13.346;2022-08-03T00:45:22;1.13;;;1.00;;
51122;SDS011;37162;41.724;13.346;2022-08-03T00:47:49;1.52;;;1.10;;
51122;SDS011;37162;41.724;13.346;2022-08-03T00:50:15;2.42;;;1.23;;
51122;SDS011;37162;41.724;13.346;2022-08-03T00:52:42;1.20;;;1.10;;
51122;SDS011;37162;41.724;13.346;2022-08-03T00:55:08;1.30;;;1.00;;
51122;SDS011;37162;41.724;13.346;2022-08-03T00:57:35;1.67;;;1.10;;
51122;SDS011;37162;41.724;13.346;2022-08-03T01:00:00;1.10;;;1.00;;
51122;SDS011;37162;41.724;13.346;2022-08-03T01:02:27;1.33;;;1.23;;
51122;SDS011;37162;41.724;13.346;2022-08-03T01:04:53;1.23;;;1.13;;
51122;SDS011;37162;41.724;13.346;2022-08-03T01:07:26;2.42;;;1.10;;
51122;SDS011;37162;41.724;13.346;2022-08-03T01:12:57;1.17;;;1.00;;
51122;SDS011;37162;41.724;13.346;2022-08-03T01:15:44;1.20;;;1.10;;
51122;SDS011;37162;41.724;13.346;2022-08-03T01:18:19;1.00;;;1.00;;
51122;SDS011;37162;41.724;13.346;2022-08-03T01:20:54;1.08;;;1.00;;
51122;SDS011;37162;41.724;13.346;2022-08-03T01:26:35;2.22;;;1.10;;
51122;SDS011;37162;41.724;13.346;2022-08-03T01:31:46;1.33;;;1.20;;
51122;SDS011;37162;41.724;13.346;2022-08-03T01:34:17;1.20;;;1.10;;
51122;SDS011;37162;41.724;13.346;2022-08-03T01:36:48;1.10;;;1.00;;
51122;SDS011;37162;41.724;13.346;2022-08-03T01:41:45;1.15;;;1.05;;
51122;SDS011;37162;41.724;13.346;2022-08-03T01:44:13;0.93;;;0.93;;
51122;SDS011;37162;41.724;13.346;2022-08-03T01:46:39;1.27;;;0.98;;
51122;SDS011;37162;41.724;13.346;2022-08-03T01:49:08;0.88;;;0.82;;
51122;SDS011;37162;41.724;13.346;2022-08-03T01:51:37;1.40;;;1.10;;
51122;SDS011;37162;41.724;13.346;2022-08-03T01:54:05;1.13;;;1.00;;
51122;SDS011;37162;41.724;13.346;2022-08-03T01:56:33;1.40;;;1.20;;
51122;SDS011;37162;41.724;13.346;2022-08-03T01:59:02;1.17;;;1.00;;
51122;SDS011;37162;41.724;13.346;2022-08-03T02:01:28;1.35;;;1.10;;
51122;SDS011;37162;41.724;13.346;2022-08-03T02:03:56;2.00;;;1.10;;
51122;SDS011;37162;41.724;13.346;2022-08-03T02:06:23;2.15;;;1.17;;
51122;SDS011;37162;41.724;13.346;2022-08-03T02:08:50;1.85;;;1.00;;
51122;SDS011;37162;41.724;13.346;2022-08-03T02:11:17;1.15;;;1.00;;
51122;SDS011;37162;41.724;13.346;2022-08-03T02:13:43;1.08;;;0.98;;
51122;SDS011;37162;41.724;13.346;2022-08-03T02:16:10;1.30;;;1.00;;
51122;SDS011;37162;41.724;13.346;2022-08-03T02:18:38;3.63;;;1.30;;
51122;SDS011;37162;41.724;13.346;2022-08-03T02:21:04;3.63;;;1.10;;
51122;SDS011;37162;41.724;13.346;2022-08-03T02:23:34;0.85;;;0.85;;
51122;SDS011;37162;41.724;13.346;2022-08-03T02:26:01;1.42;;;1.20;;
51122;SDS011;37162;41.724;13.346;2022-08-03T02:28:30;1.60;;;1.20;;
51122;SDS011;37162;41.724;13.346;2022-08-03T02:30:58;1.08;;;1.05;;
51122;SDS011;37162;41.724;13.346;2022-08-03T02:33:33;1.75;;;1.20;;
51122;SDS011;37162;41.724;13.346;2022-08-03T02:36:02;1.90;;;1.38;;
51122;SDS011;37162;41.724;13.346;2022-08-03T02:38:30;1.45;;;1.10;;
51122;SDS011;37162;41.724;13.346;2022-08-03T02:40:58;1.75;;;1.20;;
51122;SDS011;37162;41.724;13.346;2022-08-03T02:43:28;1.80;;;1.38;;
51122;SDS011;37162;41.724;13.346;2022-08-03T02:45:55;1.92;;;1.38;;
51122;SDS011;37162;41.724;13.346;2022-08-03T02:48:23;1.80;;;1.60;;
51122;SDS011;37162;41.724;13.346;2022-08-03T02:50:53;2.33;;;1.17;;
51122;SDS011;37162;41.724;13.346;2022-08-03T02:53:22;1.33;;;1.23;;
51122;SDS011;37162;41.724;13.346;2022-08-03T02:55:48;1.30;;;1.20;;
51122;SDS011;37162;41.724;13.346;2022-08-03T02:58:16;1.10;;;1.00;;
51122;SDS011;37162;41.724;13.346;2022-08-03T03:00:45;1.08;;;1.05;;
51122;SDS011;37162;41.724;13.346;2022-08-03T03:03:11;2.33;;;1.38;;
51122;SDS011;37162;41.724;13.346;2022-08-03T03:05:39;1.60;;;1.20;;
51122;SDS011;37162;41.724;13.346;2022-08-03T03:08:06;1.80;;;1.30;;
51122;SDS011;37162;41.724;13.346;2022-08-03T03:10:33;2.80;;;1.25;;
51122;SDS011;37162;41.724;13.346;2022-08-03T03:13:01;1.65;;;1.00;;
51122;SDS011;37162;41.724;13.346;2022-08-03T03:15:27;1.20;;;1.10;;
51122;SDS011;37162;41.724;13.346;2022-08-03T03:17:55;1.75;;;1.15;;
51122;SDS011;37162;41.724;13.346;2022-08-03T03:20:22;1.35;;;1.25;;
51122;SDS011;37162;41.724;13.346;2022-08-03T03:22:49;1.45;;;1.27;;
51122;SDS011;37162;41.724;13.346;2022-08-03T03:25:15;3.90;;;1.40;;
51122;SDS011;37162;41.724;13.346;2022-08-03T03:27:41;2.08;;;1.33;;
51122;SDS011;37162;41.724;13.346;2022-08-03T03:30:07;1.20;;;1.10;;
51122;SDS011;37162;41.724;13.346;2022-08-03T03:32:33;1.52;;;1.15;;
51122;SDS011;37162;41.724;13.346;2022-08-03T03:35:01;2.00;;;1.40;;
51122;SDS011;37162;41.724;13.346;2022-08-03T03:37:28;1.40;;;1.15;;
51122;SDS011;37162;41.724;13.346;2022-08-03T03:39:54;1.20;;;1.10;;
51122;SDS011;37162;41.724;13.346;2022-08-03T03:42:20;1.30;;;1.20;;
51122;SDS011;37162;41.724;13.346;2022-08-03T03:44:46;2.35;;;1.10;;
51122;SDS011;37162;41.724;13.346;2022-08-03T03:47:11;6.20;;;1.40;;
51122;SDS011;37162;41.724;13.346;2022-08-03T03:49:37;2.35;;;1.42;;
51122;SDS011;37162;41.724;13.346;2022-08-03T03:52:04;1.42;;;1.13;;
51122;SDS011;37162;41.724;13.346;2022-08-03T03:54:39;2.78;;;1.30;;
51122;SDS011;37162;41.724;13.346;2022-08-03T03:57:05;3.47;;;1.30;;
51122;SDS011;37162;41.724;13.346;2022-08-03T03:59:30;1.30;;;1.20;;
51122;SDS011;37162;41.724;13.346;2022-08-03T04:01:57;2.08;;;1.10;;
51122;SDS011;37162;41.724;13.346;2022-08-03T04:04:22;1.48;;;1.20;;
51122;SDS011;37162;41.724;13.346;2022-08-03T04:07:06;1.10;;;1.00;;
51122;SDS011;37162;41.724;13.346;2022-08-03T04:09:50;1.00;;;1.00;;
51122;SDS011;37162;41.724;13.346;2022-08-03T04:12:35;3.40;;;1.35;;
51122;SDS011;37162;41.724;13.346;2022-08-03T04:15:03;1.40;;;1.30;;
51122;SDS011;37162;41.724;13.346;2022-08-03T04:17:30;1.38;;;1.17;;
51122;SDS011;37162;41.724;13.346;2022-08-03T04:19:56;0.80;;;0.80;;
51122;SDS011;37162;41.724;13.346;2022-08-03T04:22:25;1.35;;;1.20;;
51122;SDS011;37162;41.724;13.346;2022-08-03T04:25:00;2.35;;;1.40;;
51122;SDS011;37162;41.724;13.346;2022-08-03T04:27:31;2.75;;;1.27;;
51122;SDS011;37162;41.724;13.346;2022-08-03T04:30:02;1.70;;;1.60;;
51122;SDS011;37162;41.724;13.346;2022-08-03T04:32:29;1.48;;;1.30;;
51122;SDS011;37162;41.724;13.346;2022-08-03T04:34:55;1.15;;;1.05;;
51122;SDS011;37162;41.724;13.346;2022-08-03T04:37:31;1.33;;;1.23;;
51122;SDS011;37162;41.724;13.346;2022-08-03T04:40:02;2.33;;;1.20;;
51122;SDS011;37162;41.724;13.346;2022-08-03T04:42:31;2.08;;;1.00;;
51122;SDS011;37162;41.724;13.346;2022-08-03T04:44:57;1.30;;;1.00;;
51122;SDS011;37162;41.724;13.346;2022-08-03T04:47:23;1.00;;;1.00;;
51122;SDS011;37162;41.724;13.346;2022-08-03T04:49:49;1.30;;;1.00;;
51122;SDS011;37162;41.724;13.346;2022-08-03T04:52:15;2.08;;;1.02;;
51122;SDS011;37162;41.724;13.346;2022-08-03T04:54:41;1.33;;;1.10;;
51122;SDS011;37162;41.724;13.346;2022-08-03T04:57:09;1.55;;;1.27;;
51122;SDS011;37162;41.724;13.346;2022-08-03T04:59:35;1.90;;;1.10;;
51122;SDS011;37162;41.724;13.346;2022-08-03T05:02:00;3.35;;;1.10;;
51122;SDS011;37162;41.724;13.346;2022-08-03T05:04:26;2.75;;;1.23;;
51122;SDS011;37162;41.724;13.346;2022-08-03T05:06:51;3.38;;;1.48;;
51122;SDS011;37162;41.724;13.346;2022-08-03T05:09:17;1.98;;;1.30;;
51122;SDS011;37162;41.724;13.346;2022-08-03T05:11:42;26.63;;;1.55;;
51122;SDS011;37162;41.724;13.346;2022-08-03T05:14:07;3.13;;;1.20;;
51122;SDS011;37162;41.724;13.346;2022-08-03T05:16:33;1.50;;;1.30;;
51122;SDS011;37162;41.724;13.346;2022-08-03T05:18:58;1.65;;;1.30;;
51122;SDS011;37162;41.724;13.346;2022-08-03T05:21:24;1.73;;;1.40;;
51122;SDS011;37162;41.724;13.346;2022-08-03T05:23:49;1.90;;;1.30;;
51122;SDS011;37162;41.724;13.346;2022-08-03T05:26:15;1.25;;;1.15;;
51122;SDS011;37162;41.724;13.346;2022-08-03T05:28:40;1.80;;;1.15;;
51122;SDS011;37162;41.724;13.346;2022-08-03T05:31:06;2.35;;;1.38;;
51122;SDS011;37162;41.724;13.346;2022-08-03T05:33:31;1.88;;;1.10;;
51122;SDS011;37162;41.724;13.346;2022-08-03T05:35:56;2.10;;;1.10;;
51122;SDS011;37162;41.724;13.346;2022-08-03T05:38:23;1.05;;;1.05;;
51122;SDS011;37162;41.724;13.346;2022-08-03T05:40:49;6.00;;;1.60;;
51122;SDS011;37162;41.724;13.346;2022-08-03T05:43:14;2.13;;;1.60;;
51122;SDS011;37162;41.724;13.346;2022-08-03T05:45:40;1.75;;;1.65;;
51122;SDS011;37162;41.724;13.346;2022-08-03T05:48:06;1.70;;;1.35;;
51122;SDS011;37162;41.724;13.346;2022-08-03T05:50:31;3.95;;;1.33;;
51122;SDS011;37162;41.724;13.346;2022-08-03T05:52:57;2.78;;;1.55;;
51122;SDS011;37162;41.724;13.346;2022-08-03T05:55:22;1.52;;;1.38;;
51122;SDS011;37162;41.724;13.346;2022-08-03T05:57:48;1.90;;;1.20;;
51122;SDS011;37162;41.724;13.346;2022-08-03T06:00:14;2.20;;;1.30;;
51122;SDS011;37162;41.724;13.346;2022-08-03T06:02:40;2.78;;;1.52;;
51122;SDS011;37162;41.724;13.346;2022-08-03T06:05:06;2.17;;;1.52;;
51122;SDS011;37162;41.724;13.346;2022-08-03T06:07:32;3.55;;;1.50;;
51122;SDS011;37162;41.724;13.346;2022-08-03T06:09:58;2.30;;;1.67;;
51122;SDS011;37162;41.724;13.346;2022-08-03T06:12:26;1.48;;;1.38;;
51122;SDS011;37162;41.724;13.346;2022-08-03T06:14:51;4.13;;;1.73;;
51122;SDS011;37162;41.724;13.346;2022-08-03T06:17:17;1.85;;;1.63;;
51122;SDS011;37162;41.724;13.346;2022-08-03T06:19:42;1.65;;;1.27;;
51122;SDS011;37162;41.724;13.346;2022-08-03T06:22:08;3.40;;;1.60;;
51122;SDS011;37162;41.724;13.346;2022-08-03T06:24:33;2.45;;;1.45;;
51122;SDS011;37162;41.724;13.346;2022-08-03T06:26:58;2.78;;;1.73;;
51122;SDS011;37162;41.724;13.346;2022-08-03T06:29:24;4.22;;;1.55;;
51122;SDS011;37162;41.724;13.346;2022-08-03T06:31:50;4.60;;;1.55;;
51122;SDS011;37162;41.724;13.346;2022-08-03T06:34:15;3.67;;;1.90;;
51122;SDS011;37162;41.724;13.346;2022-08-03T06:36:43;3.30;;;1.80;;
51122;SDS011;37162;41.724;13.346;2022-08-03T06:39:12;3.00;;;1.90;;
51122;SDS011;37162;41.724;13.346;2022-08-03T06:41:38;2.53;;;2.22;;
51122;SDS011;37162;41.724;13.346;2022-08-03T06:44:03;4.38;;;2.00;;
51122;SDS011;37162;41.724;13.346;2022-08-03T06:46:29;4.78;;;2.25;;
51122;SDS011;37162;41.724;13.346;2022-08-03T06:48:54;5.22;;;2.08;;
51122;SDS011;37162;41.724;13.346;2022-08-03T06:51:20;6.53;;;3.05;;
51122;SDS011;37162;41.724;13.346;2022-08-03T06:54:10;45.95;;;6.00;;
51122;SDS011;37162;41.724;13.346;2022-08-03T06:56:36;9.88;;;3.80;;
51122;SDS011;37162;41.724;13.346;2022-08-03T06:59:01;13.05;;;3.00;;
51122;SDS011;37162;41.724;13.346;2022-08-03T07:01:27;12.20;;;2.88;;
51122;SDS011;37162;41.724;13.346;2022-08-03T07:03:52;13.32;;;3.42;;
51122;SDS011;37162;41.724;13.346;2022-08-03T07:06:18;18.17;;;2.55;;
51122;SDS011;37162;41.724;13.346;2022-08-03T07:08:44;13.13;;;2.28;;
51122;SDS011;37162;41.724;13.346;2022-08-03T07:11:09;7.30;;;2.20;;
51122;SDS011;37162;41.724;13.346;2022-08-03T07:13:35;11.70;;;3.00;;
51122;SDS011;37162;41.724;13.346;2022-08-03T07:16:00;8.80;;;2.30;;
51122;SDS011;37162;41.724;13.346;2022-08-03T07:18:26;6.22;;;2.22;;
51122;SDS011;37162;41.724;13.346;2022-08-03T07:20:51;2.97;;;1.90;;
51122;SDS011;37162;41.724;13.346;2022-08-03T07:23:16;8.93;;;2.20;;
51122;SDS011;37162;41.724;13.346;2022-08-03T07:25:42;5.07;;;1.98;;
51122;SDS011;37162;41.724;13.346;2022-08-03T07:28:07;7.03;;;2.33;;
51122;SDS011;37162;41.724;13.346;2022-08-03T07:30:33;3.58;;;1.80;;
51122;SDS011;37162;41.724;13.346;2022-08-03T07:32:59;7.93;;;1.75;;
51122;SDS011;37162;41.724;13.346;2022-08-03T07:35:25;4.72;;;2.03;;
51122;SDS011;37162;41.724;13.346;2022-08-03T07:37:51;8.27;;;2.15;;
51122;SDS011;37162;41.724;13.346;2022-08-03T07:40:19;4.15;;;1.77;;
51122;SDS011;37162;41.724;13.346;2022-08-03T07:42:44;2.17;;;1.50;;
51122;SDS011;37162;41.724;13.346;2022-08-03T07:45:10;4.55;;;1.90;;
51122;SDS011;37162;41.724;13.346;2022-08-03T07:47:35;2.78;;;1.60;;
51122;SDS011;37162;41.724;13.346;2022-08-03T07:50:01;5.63;;;1.83;;
51122;SDS011;37162;41.724;13.346;2022-08-03T07:52:26;3.05;;;1.60;;
51122;SDS011;37162;41.724;13.346;2022-08-03T07:55:10;2.75;;;1.50;;
51122;SDS011;37162;41.724;13.346;2022-08-03T07:57:35;1.73;;;1.50;;
51122;SDS011;37162;41.724;13.346;2022-08-03T08:00:02;19.05;;;2.28;;
51122;SDS011;37162;41.724;13.346;2022-08-03T08:02:29;11.73;;;2.72;;
51122;SDS011;37162;41.724;13.346;2022-08-03T08:04:54;12.75;;;2.58;;
51122;SDS011;37162;41.724;13.346;2022-08-03T08:07:20;15.50;;;1.80;;
51122;SDS011;37162;41.724;13.346;2022-08-03T08:09:45;7.05;;;2.30;;
51122;SDS011;37162;41.724;13.346;2022-08-03T08:12:10;12.02;;;2.63;;
51122;SDS011;37162;41.724;13.346;2022-08-03T08:14:36;5.00;;;1.90;;
51122;SDS011;37162;41.724;13.346;2022-08-03T08:17:02;6.57;;;1.77;;
51122;SDS011;37162;41.724;13.346;2022-08-03T08:19:27;1.77;;;1.40;;
51122;SDS011;37162;41.724;13.346;2022-08-03T08:21:53;4.60;;;1.70;;
51122;SDS011;37162;41.724;13.346;2022-08-03T08:24:18;3.30;;;1.80;;
51122;SDS011;37162;41.724;13.346;2022-08-03T08:26:44;3.13;;;1.58;;
51122;SDS011;37162;41.724;13.346;2022-08-03T08:29:09;4.25;;;1.88;;
51122;SDS011;37162;41.724;13.346;2022-08-03T08:31:34;3.15;;;1.50;;
51122;SDS011;37162;41.724;13.346;2022-08-03T08:34:00;4.53;;;1.70;;
51122;SDS011;37162;41.724;13.346;2022-08-03T08:36:30;2.30;;;1.70;;
51122;SDS011;37162;41.724;13.346;2022-08-03T08:38:58;5.85;;;1.98;;
51122;SDS011;37162;41.724;13.346;2022-08-03T08:41:24;3.28;;;1.60;;
51122;SDS011;37162;41.724;13.346;2022-08-03T08:43:49;4.07;;;1.85;;
51122;SDS011;37162;41.724;13.346;2022-08-03T08:46:15;4.25;;;1.50;;
51122;SDS011;37162;41.724;13.346;2022-08-03T08:48:42;2.83;;;1.50;;
51122;SDS011;37162;41.724;13.346;2022-08-03T08:51:10;2.75;;;1.50;;
51122;SDS011;37162;41.724;13.346;2022-08-03T08:53:37;1.92;;;1.40;;
51122;SDS011;37162;41.724;13.346;2022-08-03T08:56:07;2.10;;;1.35;;
51122;SDS011;37162;41.724;13.346;2022-08-03T08:58:40;1.50;;;1.40;;
51122;SDS011;37162;41.724;13.346;2022-08-03T09:01:10;2.33;;;1.40;;
51122;SDS011;37162;41.724;13.346;2022-08-03T09:03:36;2.25;;;1.20;;
51122;SDS011;37162;41.724;13.346;2022-08-03T09:06:02;1.40;;;1.30;;
51122;SDS011;37162;41.724;13.346;2022-08-03T09:08:28;3.03;;;1.55;;
51122;SDS011;37162;41.724;13.346;2022-08-03T09:10:55;3.35;;;1.42;;
51122;SDS011;37162;41.724;13.346;2022-08-03T09:13:20;1.50;;;1.20;;
51122;SDS011;37162;41.724;13.346;2022-08-03T09:15:46;1.45;;;1.27;;
51122;SDS011;37162;41.724;13.346;2022-08-03T09:18:22;1.30;;;1.20;;
51122;SDS011;37162;41.724;13.346;2022-08-03T09:20:52;2.25;;;1.40;;
51122;SDS011;37162;41.724;13.346;2022-08-03T09:23:47;2.60;;;1.70;;
51122;SDS011;37162;41.724;13.346;2022-08-03T09:26:26;2.70;;;1.40;;
51122;SDS011;37162;41.724;13.346;2022-08-03T09:29:01;3.33;;;1.50;;
51122;SDS011;37162;41.724;13.346;2022-08-03T09:31:34;2.25;;;1.52;;
51122;SDS011;37162;41.724;13.346;2022-08-03T09:34:01;2.15;;;1.45;;
51122;SDS011;37162;41.724;13.346;2022-08-03T09:39:08;1.50;;;1.40;;
51122;SDS011;37162;41.724;13.346;2022-08-03T09:42:20;1.67;;;1.40;;
51122;SDS011;37162;41.724;13.346;2022-08-03T09:44:37;1.88;;;1.33;;
51122;SDS011;37162;41.724;13.346;2022-08-03T09:47:06;1.52;;;1.30;;
51122;SDS011;37162;41.724;13.346;2022-08-03T09:49:32;1.48;;;1.20;;
51122;SDS011;37162;41.724;13.346;2022-08-03T09:52:00;2.15;;;1.50;;
51122;SDS011;37162;41.724;13.346;2022-08-03T09:54:36;1.63;;;1.52;;
51122;SDS011;37162;41.724;13.346;2022-08-03T09:57:02;1.70;;;1.20;;
51122;SDS011;37162;41.724;13.346;2022-08-03T09:59:28;2.05;;;1.30;;
51122;SDS011;37162;41.724;13.346;2022-08-03T10:01:55;2.13;;;1.35;;
51122;SDS011;37162;41.724;13.346;2022-08-03T10:04:21;1.42;;;1.20;;
51122;SDS011;37162;41.724;13.346;2022-08-03T10:07:04;2.22;;;1.58;;
51122;SDS011;37162;41.724;13.346;2022-08-03T10:09:32;2.03;;;1.40;;
51122;SDS011;37162;41.724;13.346;2022-08-03T10:12:05;1.55;;;1.40;;
51122;SDS011;37162;41.724;13.346;2022-08-03T10:14:35;1.10;;;1.10;;
51122;SDS011;37162;41.724;13.346;2022-08-03T10:17:03;1.27;;;1.17;;
51122;SDS011;37162;41.724;13.346;2022-08-03T10:19:28;1.30;;;1.20;;
51122;SDS011;37162;41.724;13.346;2022-08-03T10:21:54;2.05;;;1.30;;
51122;SDS011;37162;41.724;13.346;2022-08-03T10:24:26;4.97;;;2.10;;
51122;SDS011;37162;41.724;13.346;2022-08-03T10:29:38;4.47;;;1.70;;
51122;SDS011;37162;41.724;13.346;2022-08-03T10:32:12;6.10;;;1.63;;
51122;SDS011;37162;41.724;13.346;2022-08-03T10:34:43;5.63;;;1.95;;
51122;SDS011;37162;41.724;13.346;2022-08-03T10:37:10;2.53;;;1.52;;
51122;SDS011;37162;41.724;13.346;2022-08-03T10:39:39;2.70;;;1.48;;
51122;SDS011;37162;41.724;13.346;2022-08-03T10:42:18;4.00;;;2.28;;
51122;SDS011;37162;41.724;13.346;2022-08-03T10:44:49;6.93;;;2.00;;
51122;SDS011;37162;41.724;13.346;2022-08-03T10:47:28;5.45;;;1.50;;
51122;SDS011;37162;41.724;13.346;2022-08-03T10:49:54;4.20;;;1.63;;
51122;SDS011;37162;41.724;13.346;2022-08-03T10:52:20;3.92;;;1.70;;
51122;SDS011;37162;41.724;13.346;2022-08-03T10:54:46;4.10;;;1.50;;
51122;SDS011;37162;41.724;13.346;2022-08-03T11:00:18;2.72;;;1.33;;
51122;SDS011;37162;41.724;13.346;2022-08-03T11:05:33;2.35;;;1.60;;
51122;SDS011;37162;41.724;13.346;2022-08-03T11:08:16;2.67;;;1.35;;
51122;SDS011;37162;41.724;13.346;2022-08-03T11:10:43;2.88;;;1.50;;
51122;SDS011;37162;41.724;13.346;2022-08-03T11:13:09;1.75;;;1.45;;
51122;SDS011;37162;41.724;13.346;2022-08-03T11:15:39;1.80;;;1.33;;
51122;SDS011;37162;41.724;13.346;2022-08-03T11:18:09;1.40;;;1.30;;
51122;SDS011;37162;41.724;13.346;2022-08-03T11:20:49;2.95;;;1.52;;
51122;SDS011;37162;41.724;13.346;2022-08-03T11:23:20;1.80;;;1.27;;
51122;SDS011;37162;41.724;13.346;2022-08-03T11:26:12;2.25;;;1.45;;
51122;SDS011;37162;41.724;13.346;2022-08-03T11:28:40;1.75;;;1.30;;
51122;SDS011;37162;41.724;13.346;2022-08-03T11:39:13;2.75;;;1.45;;
51122;SDS011;37162;41.724;13.346;2022-08-03T11:41:40;1.73;;;1.20;;
51122;SDS011;37162;41.724;13.346;2022-08-03T11:44:05;1.50;;;1.40;;
51122;SDS011;37162;41.724;13.346;2022-08-03T11:46:35;1.90;;;1.27;;
51122;SDS011;37162;41.724;13.346;2022-08-03T11:49:05;1.73;;;1.35;;
51122;SDS011;37162;41.724;13.346;2022-08-03T11:54:00;1.58;;;1.20;;
51122;SDS011;37162;41.724;13.346;2022-08-03T11:56:42;2.22;;;1.70;;
51122;SDS011;37162;41.724;13.346;2022-08-03T11:59:09;2.30;;;1.50;;
51122;SDS011;37162;41.724;13.346;2022-08-03T12:01:34;2.72;;;1.40;;
51122;SDS011;37162;41.724;13.346;2022-08-03T12:04:05;1.40;;;1.30;;
51122;SDS011;37162;41.724;13.346;2022-08-03T12:06:31;1.77;;;1.40;;
51122;SDS011;37162;41.724;13.346;2022-08-03T12:09:16;1.95;;;1.70;;
51122;SDS011;37162;41.724;13.346;2022-08-03T12:11:42;1.80;;;1.60;;
51122;SDS011;37162;41.724;13.346;2022-08-03T12:14:15;1.77;;;1.55;;
51122;SDS011;37162;41.724;13.346;2022-08-03T12:16:41;3.38;;;1.40;;
51122;SDS011;37162;41.724;13.346;2022-08-03T12:19:11;1.73;;;1.40;;
51122;SDS011;37162;41.724;13.346;2022-08-03T12:21:49;3.40;;;1.65;;
51122;SDS011;37162;41.724;13.346;2022-08-03T12:24:15;3.60;;;1.70;;
51122;SDS011;37162;41.724;13.346;2022-08-03T12:26:45;1.92;;;1.60;;
51122;SDS011;37162;41.724;13.346;2022-08-03T12:29:18;2.75;;;1.58;;
51122;SDS011;37162;41.724;13.346;2022-08-03T12:31:45;2.50;;;1.40;;
51122;SDS011;37162;41.724;13.346;2022-08-03T12:34:11;3.40;;;1.75;;
51122;SDS011;37162;41.724;13.346;2022-08-03T12:36:37;2.03;;;1.70;;
51122;SDS011;37162;41.724;13.346;2022-08-03T12:39:15;2.63;;;1.80;;
51122;SDS011;37162;41.724;13.346;2022-08-03T12:41:41;3.20;;;1.77;;
51122;SDS011;37162;41.724;13.346;2022-08-03T12:44:07;1.65;;;1.50;;
51122;SDS011;37162;41.724;13.346;2022-08-03T12:46:40;1.77;;;1.63;;
51122;SDS011;37162;41.724;13.346;2022-08-03T12:49:07;1.73;;;1.50;;
51122;SDS011;37162;41.724;13.346;2022-08-03T12:54:07;1.67;;;1.35;;
51122;SDS011;37162;41.724;13.346;2022-08-03T12:56:34;2.50;;;1.60;;
51122;SDS011;37162;41.724;13.346;2022-08-03T12:59:00;2.00;;;1.52;;
51122;SDS011;37162;41.724;13.346;2022-08-03T13:01:45;2.25;;;2.05;;
51122;SDS011;37162;41.724;13.346;2022-08-03T13:04:10;1.58;;;1.48;;
51122;SDS011;37162;41.724;13.346;2022-08-03T13:06:36;1.85;;;1.60;;
51122;SDS011;37162;41.724;13.346;2022-08-03T13:09:05;1.92;;;1.30;;
51122;SDS011;37162;41.724;13.346;2022-08-03T13:11:32;2.17;;;1.35;;
51122;SDS011;37162;41.724;13.346;2022-08-03T13:13:58;2.63;;;1.83;;
51122;SDS011;37162;41.724;13.346;2022-08-03T13:16:23;2.50;;;1.50;;
51122;SDS011;37162;41.724;13.346;2022-08-03T13:18:49;2.35;;;1.80;;
51122;SDS011;37162;41.724;13.346;2022-08-03T13:21:17;4.05;;;1.70;;
51122;SDS011;37162;41.724;13.346;2022-08-03T13:23:44;3.15;;;1.70;;
51122;SDS011;37162;41.724;13.346;2022-08-03T13:26:10;1.90;;;1.70;;
51122;SDS011;37162;41.724;13.346;2022-08-03T13:28:39;1.90;;;1.60;;
51122;SDS011;37162;41.724;13.346;2022-08-03T13:31:05;1.77;;;1.60;;
51122;SDS011;37162;41.724;13.346;2022-08-03T13:33:31;2.08;;;1.60;;
51122;SDS011;37162;41.724;13.346;2022-08-03T13:35:56;1.70;;;1.45;;
51122;SDS011;37162;41.724;13.346;2022-08-03T13:38:22;2.38;;;1.80;;
51122;SDS011;37162;41.724;13.346;2022-08-03T13:40:50;1.98;;;1.73;;
51122;SDS011;37162;41.724;13.346;2022-08-03T13:43:17;1.65;;;1.55;;
51122;SDS011;37162;41.724;13.346;2022-08-03T13:45:43;1.75;;;1.63;;
51122;SDS011;37162;41.724;13.346;2022-08-03T13:48:08;2.50;;;1.90;;
51122;SDS011;37162;41.724;13.346;2022-08-03T13:50:33;3.33;;;2.08;;
51122;SDS011;37162;41.724;13.346;2022-08-03T13:52:59;1.77;;;1.67;;
51122;SDS011;37162;41.724;13.346;2022-08-03T13:55:24;2.22;;;1.85;;
51122;SDS011;37162;41.724;13.346;2022-08-03T13:57:50;3.25;;;1.70;;
51122;SDS011;37162;41.724;13.346;2022-08-03T14:00:15;1.85;;;1.65;;
51122;SDS011;37162;41.724;13.346;2022-08-03T14:02:42;1.60;;;1.50;;
51122;SDS011;37162;41.724;13.346;2022-08-03T14:05:07;1.70;;;1.50;;
51122;SDS011;37162;41.724;13.346;2022-08-03T14:07:33;2.10;;;1.30;;
51122;SDS011;37162;41.724;13.346;2022-08-03T14:09:58;1.75;;;1.55;;
51122;SDS011;37162;41.724;13.346;2022-08-03T14:12:25;1.48;;;1.38;;
51122;SDS011;37162;41.724;13.346;2022-08-03T14:14:51;2.50;;;1.90;;
51122;SDS011;37162;41.724;13.346;2022-08-03T14:17:17;2.90;;;1.75;;
51122;SDS011;37162;41.724;13.346;2022-08-03T14:19:42;2.17;;;1.55;;
51122;SDS011;37162;41.724;13.346;2022-08-03T14:22:07;2.65;;;1.70;;
51122;SDS011;37162;41.724;13.346;2022-08-03T14:24:33;2.03;;;1.85;;
51122;SDS011;37162;41.724;13.346;2022-08-03T14:26:58;1.88;;;1.58;;
51122;SDS011;37162;41.724;13.346;2022-08-03T14:29:24;1.85;;;1.60;;
51122;SDS011;37162;41.724;13.346;2022-08-03T14:31:49;3.15;;;2.22;;
51122;SDS011;37162;41.724;13.346;2022-08-03T14:34:15;2.22;;;1.90;;
51122;SDS011;37162;41.724;13.346;2022-08-03T14:36:40;2.28;;;1.88;;
51122;SDS011;37162;41.724;13.346;2022-08-03T14:39:06;3.83;;;1.80;;
51122;SDS011;37162;41.724;13.346;2022-08-03T14:41:31;1.85;;;1.70;;
51122;SDS011;37162;41.724;13.346;2022-08-03T14:43:57;2.97;;;2.10;;
51122;SDS011;37162;41.724;13.346;2022-08-03T14:46:22;1.95;;;1.75;;
51122;SDS011;37162;41.724;13.346;2022-08-03T14:48:48;3.45;;;1.73;;
51122;SDS011;37162;41.724;13.346;2022-08-03T14:51:13;1.52;;;1.40;;
51122;SDS011;37162;41.724;13.346;2022-08-03T14:53:39;3.17;;;2.05;;
51122;SDS011;37162;41.724;13.346;2022-08-03T14:56:05;5.18;;;1.70;;
51122;SDS011;37162;41.724;13.346;2022-08-03T14:58:31;3.80;;;1.77;;
51122;SDS011;37162;41.724;13.346;2022-08-03T15:00:56;1.83;;;1.50;;
51122;SDS011;37162;41.724;13.346;2022-08-03T15:03:22;2.22;;;1.70;;
51122;SDS011;37162;41.724;13.346;2022-08-03T15:05:49;2.05;;;1.85;;
51122;SDS011;37162;41.724;13.346;2022-08-03T15:08:19;4.25;;;1.70;;
51122;SDS011;37162;41.724;13.346;2022-08-03T15:10:45;4.78;;;1.50;;
51122;SDS011;37162;41.724;13.346;2022-08-03T15:13:13;2.45;;;1.90;;